Time;durP1;ratioP1;P1;durP2;ratioP2;P2;SDS_P1;SDS_P2;PMS_P1;PMS_P2;Temp;Humidity;BMP_temperature;BMP_pressure;BME280_temperature;BME280_humidity;BME280_pressure;Samples;Min_cycle;Max_cycle;Signal;HPM_P1;HPM_P2
2023/04/06 00:00:38;;;;;;;0.85;0.30;;;;;;;11.33;76.17;101350.09;5000813;28;20046;-86
2023/04/06 00:03:07;;;;;;;2.17;0.35;;;;;;;11.29;79.47;101348.22;4984816;28;20094;-86
2023/04/06 00:05:35;;;;;;;0.30;0.30;;;;;;;11.30;77.37;101350.00;4987770;28;20077;-84
2023/04/06 00:08:04;;;;;;;1.65;0.70;;;;;;;11.24;76.88;101344.59;4996481;28;20050;-84
2023/04/06 00:10:34;;;;;;;4.75;0.43;;;;;;;11.24;77.27;101342.00;4992854;28;20043;-86
2023/04/06 00:13:03;;;;;;;0.95;0.40;;;;;;;11.19;79.95;101325.44;4993884;28;20057;-83
2023/04/06 00:15:31;;;;;;;0.80;0.40;;;;;;;11.27;79.41;101336.94;4997072;28;20063;-87
2023/04/06 00:18:00;;;;;;;0.45;0.25;;;;;;;11.27;80.49;101323.97;4984179;28;20051;-82
2023/04/06 00:20:28;;;;;;;0.60;0.50;;;;;;;11.28;81.12;101328.34;4998294;28;20050;-89
2023/04/06 00:22:57;;;;;;;0.52;0.40;;;;;;;11.28;81.26;101336.13;4988683;28;20637;-84
2023/04/06 00:25:26;;;;;;;0.32;0.25;;;;;;;11.27;81.05;101331.75;4986214;28;20182;-86
2023/04/06 00:27:56;;;;;;;1.20;0.45;;;;;;;11.32;81.62;101328.50;4990074;28;20084;-86
2023/04/06 00:30:28;;;;;;;2.83;0.50;;;;;;;11.29;84.37;101318.03;4987870;28;20057;-85
2023/04/06 00:32:57;;;;;;;0.80;0.50;;;;;;;11.33;80.87;101325.06;4982133;28;20077;-84
2023/04/06 00:35:25;;;;;;;0.25;0.25;;;;;;;11.24;80.79;101316.97;4992703;28;20050;-84
2023/04/06 00:37:54;;;;;;;0.95;0.32;;;;;;;11.25;82.26;101315.28;4987942;28;20055;-84
2023/04/06 00:40:22;;;;;;;0.35;0.32;;;;;;;11.26;81.49;101312.75;4995015;28;20508;-86
2023/04/06 00:42:51;;;;;;;0.35;0.30;;;;;;;11.29;85.14;101311.97;4986186;28;20043;-85
2023/04/06 00:45:22;;;;;;;0.70;0.50;;;;;;;11.25;80.05;101308.41;4980751;28;20042;-86
2023/04/06 00:47:51;;;;;;;0.38;0.30;;;;;;;11.23;80.18;101306.59;4977990;28;20046;-86
2023/04/06 00:50:19;;;;;;;0.73;0.30;;;;;;;11.25;83.96;101304.94;4987121;28;20046;-85
2023/04/06 00:52:48;;;;;;;0.50;0.25;;;;;;;11.27;81.98;101298.06;4984249;28;20046;-84
2023/04/06 00:55:23;;;;;;;0.95;0.30;;;;;;;11.32;82.22;101293.97;4987977;28;20038;-84
2023/04/06 00:57:52;;;;;;;0.30;0.28;;;;;;;11.35;83.94;101296.63;4988315;28;20047;-87
2023/04/06 01:00:22;;;;;;;0.38;0.30;;;;;;;11.38;83.63;101294.16;4988736;28;20054;-87
2023/04/06 01:02:51;;;;;;;0.82;0.30;;;;;;;11.25;78.17;101279.03;4993033;28;20622;-84
2023/04/06 01:05:20;;;;;;;1.58;0.40;;;;;;;11.18;77.68;101282.19;4987237;28;20050;-88
2023/04/06 01:07:58;;;;;;;1.38;0.50;;;;;;;11.14;77.70;101280.34;4969990;28;20050;-87
2023/04/06 01:10:27;;;;;;;0.20;0.20;;;;;;;11.15;82.62;101282.09;4986895;28;20559;-85
2023/04/06 01:12:55;;;;;;;1.33;0.50;;;;;;;11.17;83.40;101270.09;4993757;28;20039;-84
2023/04/06 01:15:27;;;;;;;0.80;0.30;;;;;;;11.15;84.46;101274.34;4980966;28;20083;-87
2023/04/06 01:17:56;;;;;;;0.30;0.28;;;;;;;11.19;81.73;101278.81;4965591;28;20057;-84
2023/04/06 01:20:25;;;;;;;1.15;0.40;;;;;;;11.17;83.94;101275.28;4993015;28;20121;-84
2023/04/06 01:22:55;;;;;;;0.30;0.30;;;;;;;11.15;81.06;101271.75;4992689;28;20126;-84
2023/04/06 01:25:23;;;;;;;0.30;0.20;;;;;;;11.11;81.41;101279.41;4973481;28;20112;-84
2023/04/06 01:27:52;;;;;;;0.32;0.22;;;;;;;11.10;83.83;101269.88;4985739;28;20046;-86
2023/04/06 01:30:20;;;;;;;0.63;0.43;;;;;;;11.09;82.43;101269.84;4990243;28;20046;-85
2023/04/06 01:32:49;;;;;;;2.30;0.32;;;;;;;11.10;82.68;101269.88;4992597;28;20046;-83
2023/04/06 01:35:17;;;;;;;2.05;0.40;;;;;;;11.07;82.72;101264.59;4986665;28;20120;-88
2023/04/06 01:37:46;;;;;;;0.45;0.40;;;;;;;11.04;84.75;101264.50;4987175;28;20110;-86
2023/04/06 01:40:16;;;;;;;1.48;0.30;;;;;;;11.05;87.49;101260.19;4988091;28;20039;-87
2023/04/06 01:42:45;;;;;;;0.35;0.25;;;;;;;11.00;84.40;101251.38;4987357;28;20058;-84
2023/04/06 01:45:17;;;;;;;1.02;0.50;;;;;;;10.98;84.00;101253.91;4986714;28;20415;-86
2023/04/06 01:47:47;;;;;;;0.90;0.50;;;;;;;10.95;83.76;101251.22;4996427;28;20630;-87
2023/04/06 01:50:24;;;;;;;1.25;0.43;;;;;;;10.92;87.62;101248.50;4999557;28;20030;-89
2023/04/06 01:53:03;;;;;;;0.40;0.20;;;;;;;10.96;87.90;101247.78;4999302;28;20042;-85
2023/04/06 01:55:39;;;;;;;0.60;0.38;;;;;;;10.94;87.04;101248.56;5016831;28;20098;-83
2023/04/06 01:58:10;;;;;;;0.45;0.30;;;;;;;10.96;86.39;101240.03;5009620;28;20045;-88
2023/04/06 02:00:39;;;;;;;1.25;0.40;;;;;;;10.95;84.92;101233.09;5003490;28;20050;-88
2023/04/06 02:03:08;;;;;;;0.30;0.28;;;;;;;10.91;84.58;101231.22;4996096;28;20043;-88
2023/04/06 02:05:38;;;;;;;0.55;0.40;;;;;;;10.92;86.51;101227.78;4997354;28;20055;-88
2023/04/06 02:08:06;;;;;;;1.75;0.40;;;;;;;10.92;87.91;101222.59;4992942;28;20590;-87
2023/04/06 02:10:37;;;;;;;1.38;0.30;;;;;;;10.90;86.49;101221.66;5001344;28;20108;-86
2023/04/06 02:13:06;;;;;;;1.75;0.30;;;;;;;10.89;86.15;101219.91;5000588;28;20054;-87
2023/04/06 02:15:34;;;;;;;0.55;0.35;;;;;;;10.91;87.96;101218.28;4999832;28;20043;-87
2023/04/06 02:18:03;;;;;;;0.43;0.35;;;;;;;10.82;84.99;101211.03;4998191;28;20500;-85
2023/04/06 02:20:32;;;;;;;1.73;0.57;;;;;;;10.77;85.45;101202.25;5002183;28;20053;-83
2023/04/06 02:23:01;;;;;;;0.52;0.25;;;;;;;10.75;87.91;101213.38;4992308;28;20554;-85
2023/04/06 02:25:30;;;;;;;1.00;0.38;;;;;;;10.69;85.94;101204.53;4991014;28;20550;-89
2023/04/06 02:28:00;;;;;;;1.75;0.43;;;;;;;10.67;87.72;101203.63;4998367;28;20471;-86
2023/04/06 02:30:29;;;;;;;0.75;0.50;;;;;;;10.62;87.96;101194.78;4988207;28;20133;-87
2023/04/06 02:32:58;;;;;;;0.60;0.50;;;;;;;10.60;88.27;101196.44;4994176;28;20085;-83
2023/04/06 02:35:27;;;;;;;1.13;0.50;;;;;;;10.57;88.90;101193.75;4993960;28;20046;-85
2023/04/06 02:37:56;;;;;;;0.57;0.30;;;;;;;10.55;89.30;101190.22;4996472;28;20058;-81
2023/04/06 02:40:25;;;;;;;0.32;0.32;;;;;;;10.52;88.93;101184.06;4988809;28;20050;-90
2023/04/06 02:42:53;;;;;;;0.77;0.40;;;;;;;10.47;88.75;101182.19;4990998;28;20481;-83
2023/04/06 02:45:23;;;;;;;0.85;0.50;;;;;;;10.39;90.02;101178.44;4990429;28;20061;-86
2023/04/06 02:47:52;;;;;;;1.00;0.50;;;;;;;10.39;90.57;101177.56;4991534;28;20052;-85
2023/04/06 02:50:20;;;;;;;0.82;0.50;;;;;;;10.37;92.35;101168.84;4996892;28;20046;-88
2023/04/06 02:52:49;;;;;;;0.45;0.38;;;;;;;10.35;93.90;101173.09;4991916;28;20047;-86
2023/04/06 02:55:19;;;;;;;0.77;0.50;;;;;;;10.29;95.89;101162.53;4987915;28;20050;-89
2023/04/06 02:57:47;;;;;;;2.97;0.50;;;;;;;10.25;96.07;101166.66;4992147;28;20571;-86
2023/04/06 03:00:16;;;;;;;1.63;0.47;;;;;;;10.21;95.74;101163.06;4993636;28;20428;-90
2023/04/06 03:02:47;;;;;;;0.95;0.52;;;;;;;10.19;96.16;101166.44;4994886;28;20332;-85
2023/04/06 03:05:15;;;;;;;1.17;0.40;;;;;;;10.16;96.97;101169.78;4987741;28;20101;-82
2023/04/06 03:07:44;;;;;;;0.30;0.20;;;;;;;10.13;97.28;101174.84;4979057;28;20046;-80
2023/04/06 03:10:13;;;;;;;0.30;0.30;;;;;;;10.12;96.81;101167.03;4985972;28;20050;-79
2023/04/06 03:12:42;;;;;;;2.08;0.43;;;;;;;10.10;97.30;101174.75;4987985;28;20093;-80
2023/04/06 03:15:12;;;;;;;1.60;0.40;;;;;;;10.11;98.38;101166.16;4989553;28;20125;-81
2023/04/06 03:17:41;;;;;;;0.50;0.40;;;;;;;10.13;99.42;101168.81;4983621;28;20046;-80
2023/04/06 03:20:14;;;;;;;0.47;0.30;;;;;;;10.14;100.00;101171.44;4980760;28;20089;-81
2023/04/06 03:22:43;;;;;;;1.05;0.65;;;;;;;10.15;100.00;101170.63;4982353;28;20057;-83
2023/04/06 03:25:11;;;;;;;0.17;0.10;;;;;;;10.13;100.00;101164.50;4981056;28;20034;-81
2023/04/06 03:27:40;;;;;;;0.82;0.40;;;;;;;10.17;100.00;101168.97;4982211;28;20412;-82
2023/04/06 03:30:09;;;;;;;1.55;0.50;;;;;;;10.15;100.00;101164.56;4985423;28;20137;-80
2023/04/06 03:32:38;;;;;;;0.50;0.40;;;;;;;10.12;100.00;101167.91;4983750;28;20058;-83
2023/04/06 03:35:07;;;;;;;1.08;0.43;;;;;;;10.15;100.00;101173.22;4988352;28;20064;-83
2023/04/06 03:37:37;;;;;;;0.45;0.32;;;;;;;10.15;100.00;101164.56;4984385;28;20094;-83
2023/04/06 03:40:07;;;;;;;1.33;0.30;;;;;;;10.15;100.00;101170.63;4981198;28;20046;-85
2023/04/06 03:42:35;;;;;;;0.63;0.40;;;;;;;10.16;100.00;101174.94;4988261;28;20508;-85
2023/04/06 03:45:04;;;;;;;0.52;0.40;;;;;;;10.14;100.00;101168.84;4987214;28;20519;-84
2023/04/06 03:47:33;;;;;;;0.65;0.40;;;;;;;10.15;100.00;101169.75;4986964;28;20054;-83
2023/04/06 03:50:02;;;;;;;0.95;0.40;;;;;;;10.15;100.00;101167.16;4990109;28;20079;-86
2023/04/06 03:52:32;;;;;;;1.73;0.57;;;;;;;10.15;100.00;101165.44;4988259;28;20046;-88
2023/04/06 03:55:02;;;;;;;1.15;0.60;;;;;;;10.15;100.00;101168.03;4985978;28;20042;-81
2023/04/06 03:57:30;;;;;;;0.43;0.30;;;;;;;10.15;100.00;101168.03;4985527;28;20613;-87
2023/04/06 03:59:59;;;;;;;0.43;0.38;;;;;;;10.15;100.00;101169.75;4986274;28;20050;-83
2023/04/06 04:02:28;;;;;;;0.55;0.50;;;;;;;10.13;100.00;101172.25;4988985;28;20108;-83
2023/04/06 04:04:56;;;;;;;0.95;0.57;;;;;;;10.13;100.00;101172.25;4986429;28;20046;-83
2023/04/06 04:07:25;;;;;;;4.53;0.80;;;;;;;10.12;100.00;101167.03;4986857;28;20105;-86
2023/04/06 04:09:53;;;;;;;1.33;0.63;;;;;;;10.05;100.00;101164.19;4988730;28;20054;-88
2023/04/06 04:12:23;;;;;;;1.38;0.60;;;;;;;10.01;100.00;101169.19;4982789;28;20043;-85
2023/04/06 04:14:52;;;;;;;0.90;0.55;;;;;;;9.95;100.00;101168.97;4988825;28;20043;-82
2023/04/06 04:17:20;;;;;;;2.78;0.50;;;;;;;9.88;100.00;101161.81;4988541;28;20062;-86
2023/04/06 04:19:49;;;;;;;0.90;0.52;;;;;;;9.85;100.00;101168.63;4990646;28;20082;-83
2023/04/06 04:22:18;;;;;;;0.73;0.43;;;;;;;9.80;100.00;101162.41;4983084;28;20138;-85
2023/04/06 04:24:47;;;;;;;1.25;0.47;;;;;;;9.75;100.00;101161.31;4985622;28;20121;-86
2023/04/06 04:27:15;;;;;;;0.88;0.47;;;;;;;9.73;100.00;101160.38;4984623;28;20050;-86
2023/04/06 04:29:45;;;;;;;1.15;0.60;;;;;;;9.72;100.00;101161.19;4984268;28;20058;-85
2023/04/06 04:32:14;;;;;;;1.60;0.70;;;;;;;9.72;100.00;101158.63;4992050;28;20583;-84
2023/04/06 04:34:42;;;;;;;0.90;0.50;;;;;;;9.73;100.00;101151.75;4991098;28;20156;-83
2023/04/06 04:37:11;;;;;;;0.57;0.45;;;;;;;9.73;100.00;101151.75;4989584;28;20046;-85
2023/04/06 04:39:39;;;;;;;1.35;0.40;;;;;;;9.75;100.00;101158.72;4987693;28;20050;-86
2023/04/06 04:42:08;;;;;;;0.73;0.50;;;;;;;9.76;100.00;101155.34;4987849;28;20152;-86
2023/04/06 04:44:37;;;;;;;1.50;0.90;;;;;;;9.72;100.00;101158.63;4979074;28;20130;-86
2023/04/06 04:47:07;;;;;;;0.90;0.50;;;;;;;9.71;100.00;101153.38;4992034;28;20046;-87
2023/04/06 04:49:35;;;;;;;1.10;0.55;;;;;;;9.61;100.00;101144.41;4985481;28;20054;-87
2023/04/06 04:52:04;;;;;;;2.58;0.88;;;;;;;9.64;100.00;101157.41;4995894;28;20050;-86
2023/04/06 04:54:32;;;;;;;0.98;0.70;;;;;;;9.65;100.00;101164.38;4988862;28;20051;-86
2023/04/06 04:57:01;;;;;;;0.90;0.65;;;;;;;9.58;100.00;101158.06;4991479;28;20468;-87
2023/04/06 04:59:30;;;;;;;1.45;0.70;;;;;;;9.59;100.00;101165.00;4987364;28;20058;-86
2023/04/06 05:01:59;;;;;;;1.70;0.90;;;;;;;9.57;100.00;101158.00;4986528;28;20042;-86
2023/04/06 05:04:29;;;;;;;1.38;0.98;;;;;;;9.56;100.00;101164.00;4988980;28;20086;-83
2023/04/06 05:07:05;;;;;;;1.40;0.80;;;;;;;9.46;100.00;101148.94;4988548;28;20042;-84
2023/04/06 05:09:34;;;;;;;1.35;0.70;;;;;;;9.50;100.00;101153.41;4981217;28;20109;-80
2023/04/06 05:12:03;;;;;;;1.63;0.90;;;;;;;9.48;100.00;101155.94;4987320;28;20082;-81
2023/04/06 05:14:31;;;;;;;1.17;0.90;;;;;;;9.47;100.00;101149.00;4987199;28;20054;-82
2023/04/06 05:17:00;;;;;;;3.63;0.80;;;;;;;9.50;100.00;101149.13;4988736;28;20082;-83
2023/04/06 05:19:31;;;;;;;2.13;1.10;;;;;;;9.50;100.00;101143.09;4993227;28;20692;-83
2023/04/06 05:21:59;;;;;;;2.67;0.70;;;;;;;9.49;100.00;101146.50;4991389;28;20381;-83
2023/04/06 05:24:27;;;;;;;1.20;0.85;;;;;;;9.47;100.00;101140.38;4987388;28;20056;-83
2023/04/06 05:26:56;;;;;;;1.20;0.60;;;;;;;9.46;100.00;101141.19;4988783;28;20125;-84
2023/04/06 05:29:25;;;;;;;3.45;1.05;;;;;;;9.44;100.00;101139.44;4988288;28;20728;-84
2023/04/06 05:31:53;;;;;;;3.25;0.70;;;;;;;9.38;100.00;101113.34;4995034;28;20281;-84
2023/04/06 05:34:21;;;;;;;1.10;0.65;;;;;;;9.42;100.00;101125.59;4990170;28;20051;-85
2023/04/06 05:36:51;;;;;;;1.00;0.60;;;;;;;9.42;100.00;101120.41;4991200;28;20046;-84
2023/04/06 05:39:20;;;;;;;2.47;0.40;;;;;;;9.40;100.00;101122.06;4993449;28;20050;-83
2023/04/06 05:41:48;;;;;;;0.80;0.50;;;;;;;9.39;100.00;101120.31;4988848;28;20076;-84
2023/04/06 05:44:17;;;;;;;3.03;0.68;;;;;;;9.38;100.00;101117.66;4990506;28;20179;-83
2023/04/06 05:46:46;;;;;;;1.55;0.77;;;;;;;9.36;100.00;101114.13;4992556;28;20042;-82
2023/04/06 05:49:14;;;;;;;2.92;0.32;;;;;;;9.33;100.00;101108.84;4992970;28;20531;-82
2023/04/06 05:51:43;;;;;;;0.88;0.40;;;;;;;9.32;100.00;101109.66;4992982;28;20058;-80
2023/04/06 05:54:13;;;;;;;0.45;0.40;;;;;;;9.30;100.00;101104.44;4987380;28;20053;-80
2023/04/06 05:56:41;;;;;;;0.50;0.43;;;;;;;9.30;100.00;101103.53;4986319;28;20057;-80
2023/04/06 05:59:10;;;;;;;2.03;0.47;;;;;;;9.30;100.00;101104.44;4987718;28;20069;-79
2023/04/06 06:01:38;;;;;;;0.95;0.30;;;;;;;9.27;100.00;101103.41;4985548;28;20046;-81
2023/04/06 06:04:07;;;;;;;1.27;0.43;;;;;;;9.22;100.00;101104.13;4990164;28;20050;-80
2023/04/06 06:06:35;;;;;;;2.95;0.60;;;;;;;9.21;100.00;101106.66;4987714;28;20123;-79
2023/04/06 06:09:04;;;;;;;1.52;0.30;;;;;;;9.17;100.00;101099.59;4991414;28;20532;-81
2023/04/06 06:11:34;;;;;;;0.70;0.40;;;;;;;9.17;100.00;101094.44;4988139;28;20046;-80
2023/04/06 06:14:03;;;;;;;0.77;0.63;;;;;;;9.16;100.00;101100.41;4986257;28;20053;-79
2023/04/06 06:16:31;;;;;;;1.63;0.70;;;;;;;9.11;100.00;101095.03;4983160;28;20049;-78
2023/04/06 06:19:00;;;;;;;1.27;0.77;;;;;;;9.11;100.00;101097.63;4983013;28;20510;-80
2023/04/06 06:21:28;;;;;;;0.50;0.38;;;;;;;9.12;100.00;101093.38;4984466;28;20480;-80
2023/04/06 06:23:57;;;;;;;2.63;0.70;;;;;;;9.10;100.00;101089.84;4981323;28;20055;-78
2023/04/06 06:26:25;;;;;;;0.60;0.43;;;;;;;9.08;100.00;101082.03;4981518;28;20054;-78
2023/04/06 06:28:56;;;;;;;1.25;0.88;;;;;;;9.06;100.00;101087.94;4987570;28;20078;-79
2023/04/06 06:31:24;;;;;;;2.83;0.55;;;;;;;9.06;100.00;101075.03;4977928;28;20560;-78
2023/04/06 06:33:53;;;;;;;1.10;0.40;;;;;;;9.06;100.00;101080.22;4986254;28;20043;-80
2023/04/06 06:36:22;;;;;;;0.70;0.60;;;;;;;9.05;100.00;101071.59;4981826;28;20049;-80
2023/04/06 06:38:50;;;;;;;0.60;0.40;;;;;;;8.99;100.00;101067.03;4994555;28;20145;-80
2023/04/06 06:41:19;;;;;;;0.90;0.70;;;;;;;9.04;100.00;101067.22;4987507;28;20043;-80
2023/04/06 06:43:48;;;;;;;1.05;0.60;;;;;;;9.02;100.00;101064.59;4988020;28;20706;-79
2023/04/06 06:46:18;;;;;;;0.73;0.50;;;;;;;9.04;100.00;101066.34;4987957;28;20047;-80
2023/04/06 06:48:46;;;;;;;2.55;0.60;;;;;;;9.04;100.00;101066.34;4991312;28;20492;-79
2023/04/06 06:51:15;;;;;;;0.63;0.40;;;;;;;9.04;100.00;101064.66;4982531;28;20670;-80
2023/04/06 06:53:43;;;;;;;0.73;0.47;;;;;;;9.04;100.00;101048.28;4989615;28;20452;-80
2023/04/06 06:56:12;;;;;;;0.93;0.30;;;;;;;9.04;100.00;101050.88;4985673;28;20050;-80
2023/04/06 06:58:41;;;;;;;5.57;0.32;;;;;;;9.03;100.00;101047.41;4988928;28;20495;-80
2023/04/06 07:01:09;;;;;;;4.53;0.60;;;;;;;9.06;100.00;101049.22;4993796;28;20093;-79
2023/04/06 07:03:39;;;;;;;1.63;0.40;;;;;;;9.06;100.00;101047.53;4989846;28;20578;-80
2023/04/06 07:06:08;;;;;;;0.50;0.30;;;;;;;9.07;100.00;101038.97;4985859;28;20050;-79
2023/04/06 07:08:37;;;;;;;0.50;0.38;;;;;;;9.07;100.00;101040.66;4981862;28;20484;-80
2023/04/06 07:11:06;;;;;;;0.43;0.40;;;;;;;9.07;100.00;101032.91;4983778;28;20536;-80
2023/04/06 07:13:34;;;;;;;0.68;0.43;;;;;;;9.05;100.00;101031.97;4987313;28;20054;-79
2023/04/06 07:16:02;;;;;;;0.50;0.30;;;;;;;9.04;100.00;101032.78;4986830;28;20057;-78
2023/04/06 07:18:31;;;;;;;2.28;0.35;;;;;;;9.07;100.00;101035.50;4985265;28;20069;-80
2023/04/06 07:21:01;;;;;;;1.02;0.40;;;;;;;9.09;100.00;101037.31;4984866;28;20054;-79
2023/04/06 07:23:30;;;;;;;1.83;0.80;;;;;;;9.11;100.00;101032.22;4976078;28;20059;-79
2023/04/06 07:25:58;;;;;;;2.42;0.38;;;;;;;9.10;100.00;101028.75;4978159;28;20046;-80
2023/04/06 07:28:27;;;;;;;1.13;0.40;;;;;;;9.09;100.00;101021.81;4990333;28;20125;-80
2023/04/06 07:30:56;;;;;;;0.98;0.40;;;;;;;9.11;100.00;101027.94;4990750;28;20054;-81
2023/04/06 07:33:24;;;;;;;0.32;0.32;;;;;;;9.11;100.00;101025.34;4986850;28;20050;-81
2023/04/06 07:35:53;;;;;;;0.50;0.30;;;;;;;9.13;100.00;101022.84;4988123;28;20483;-80
2023/04/06 07:38:23;;;;;;;0.25;0.25;;;;;;;9.15;100.00;101023.78;4989109;28;20064;-81
2023/04/06 07:40:52;;;;;;;0.28;0.25;;;;;;;9.19;100.00;101023.09;4988697;28;20064;-81
2023/04/06 07:43:20;;;;;;;0.80;0.35;;;;;;;9.20;100.00;101019.66;4987044;28;20058;-81
2023/04/06 07:45:49;;;;;;;0.82;0.40;;;;;;;9.25;100.00;101023.31;4996934;28;20042;-81
2023/04/06 07:48:17;;;;;;;0.57;0.47;;;;;;;9.26;100.00;101004.44;4989103;28;20058;-80
2023/04/06 07:50:46;;;;;;;0.35;0.35;;;;;;;9.27;100.00;101008.75;4986782;28;20137;-81
2023/04/06 07:53:19;;;;;;;0.90;0.50;;;;;;;9.28;100.00;101002.78;4990835;28;20080;-82
2023/04/06 07:55:48;;;;;;;;;;;;;;;9.29;100.00;101001.09;4990444;28;20058;-80
2023/04/06 07:58:16;;;;;;;0.63;0.32;;;;;;;9.29;100.00;100994.22;4987685;28;19934;-80
2023/04/06 08:00:45;;;;;;;0.10;0.10;;;;;;;9.28;100.00;100999.31;4988619;28;20049;-79
2023/04/06 08:03:13;;;;;;;0.10;0.10;;;;;;;9.28;100.00;100992.47;4981715;28;20058;-79
2023/04/06 08:05:42;;;;;;;0.30;0.28;;;;;;;9.29;100.00;100998.50;4983648;28;20054;-78
2023/04/06 08:08:11;;;;;;;0.22;0.22;;;;;;;9.27;100.00;100989.81;4990574;28;20057;-78
2023/04/06 08:10:39;;;;;;;2.42;0.40;;;;;;;9.32;100.00;100994.34;4992416;28;20499;-78
2023/04/06 08:13:09;;;;;;;0.13;0.10;;;;;;;9.32;100.00;100986.59;4982977;28;20054;-79
2023/04/06 08:15:38;;;;;;;2.42;0.47;;;;;;;9.36;100.00;100993.63;4995263;28;20140;-79
2023/04/06 08:18:07;;;;;;;1.45;0.32;;;;;;;9.37;100.00;100987.66;4986479;28;20039;-79
2023/04/06 08:20:36;;;;;;;1.17;0.32;;;;;;;9.40;100.00;100977.41;4982777;28;20054;-79
2023/04/06 08:23:04;;;;;;;0.85;0.40;;;;;;;9.46;100.00;100983.63;4988197;28;20425;-79
2023/04/06 08:25:33;;;;;;;0.22;0.20;;;;;;;9.42;100.00;100982.66;4987408;28;20061;-79
2023/04/06 08:28:02;;;;;;;0.40;0.30;;;;;;;9.42;100.00;100968.03;4984118;28;20105;-79
2023/04/06 08:30:32;;;;;;;3.25;0.63;;;;;;;9.47;100.00;100967.34;4986766;28;20124;-80
2023/04/06 08:33:01;;;;;;;1.10;0.50;;;;;;;9.42;100.00;100968.03;4980811;28;20054;-80
2023/04/06 08:35:29;;;;;;;0.98;0.50;;;;;;;9.39;100.00;100965.34;4989275;28;20057;-81
2023/04/06 08:37:59;;;;;;;0.30;0.30;;;;;;;9.42;100.00;100964.56;4988768;28;20058;-80
2023/04/06 08:40:27;;;;;;;1.50;0.60;;;;;;;9.42;100.00;100957.69;4989114;28;20049;-80
2023/04/06 08:42:58;;;;;;;0.43;0.40;;;;;;;9.42;100.00;100965.44;4991839;28;20046;-80
2023/04/06 08:45:27;;;;;;;0.88;0.60;;;;;;;9.42;100.00;100960.28;4989036;28;20484;-81
2023/04/06 08:48:01;;;;;;;0.88;0.50;;;;;;;9.44;100.00;100953.47;4986366;28;20047;-81
2023/04/06 08:50:31;;;;;;;1.23;0.60;;;;;;;9.43;100.00;100950.81;4981999;28;20061;-82
2023/04/06 08:53:00;;;;;;;1.60;0.80;;;;;;;9.41;100.00;100948.22;4987055;28;20437;-81
2023/04/06 08:55:29;;;;;;;0.77;0.60;;;;;;;9.42;100.00;100947.38;4983484;28;20050;-80
2023/04/06 08:57:59;;;;;;;1.63;0.65;;;;;;;9.33;100.00;100934.13;4986735;28;20050;-81
2023/04/06 09:00:29;;;;;;;4.78;0.80;;;;;;;9.38;100.00;100942.03;4979283;28;20504;-81
2023/04/06 09:03:00;;;;;;;1.00;0.63;;;;;;;9.39;100.00;100944.69;4989470;28;20046;-80
2023/04/06 09:05:28;;;;;;;3.45;0.98;;;;;;;9.39;100.00;100944.69;4986930;28;20046;-80
2023/04/06 09:07:57;;;;;;;1.00;0.75;;;;;;;9.39;100.00;100934.34;4984330;28;20050;-81
2023/04/06 09:10:26;;;;;;;2.85;0.88;;;;;;;9.39;100.00;100939.53;4986173;28;20057;-80
2023/04/06 09:13:05;;;;;;;1.20;0.63;;;;;;;9.39;100.00;100928.28;4990235;28;20054;-80
2023/04/06 09:15:36;;;;;;;1.40;0.90;;;;;;;9.36;100.00;100929.06;4987394;28;20076;-80
2023/04/06 09:18:08;;;;;;;0.73;0.60;;;;;;;9.35;100.00;100919.56;4984181;28;20492;-80
2023/04/06 09:20:36;;;;;;;3.05;0.90;;;;;;;9.35;100.00;100916.09;4987669;28;20054;-79
2023/04/06 09:23:05;;;;;;;1.55;0.63;;;;;;;9.34;100.00;100917.78;4985708;28;20043;-80
2023/04/06 09:25:33;;;;;;;0.90;0.65;;;;;;;9.32;100.00;100911.72;4978945;28;20062;-80
2023/04/06 09:28:03;;;;;;;1.52;0.95;;;;;;;9.32;100.00;100916.88;4990165;28;20050;-79
2023/04/06 09:30:31;;;;;;;1.65;0.98;;;;;;;9.31;100.00;100906.47;4980553;28;20503;-80
2023/04/06 09:33:00;;;;;;;2.08;1.08;;;;;;;9.31;100.00;100912.53;4977089;28;20038;-80
2023/04/06 09:35:32;;;;;;;1.42;0.75;;;;;;;9.30;100.00;100909.88;4981146;28;20141;-79
2023/04/06 09:38:01;;;;;;;1.42;0.80;;;;;;;9.30;100.00;100905.63;4989385;28;20113;-79
2023/04/06 09:40:29;;;;;;;1.50;0.75;;;;;;;9.32;100.00;100897.91;4987006;28;20055;-79
2023/04/06 09:42:59;;;;;;;2.75;1.00;;;;;;;9.21;100.00;100876.88;4982624;28;20043;-79
2023/04/06 09:45:31;;;;;;;2.15;0.90;;;;;;;9.31;100.00;100897.03;4992489;28;20046;-79
2023/04/06 09:48:00;;;;;;;1.00;0.70;;;;;;;9.28;100.00;100890.84;4986983;28;20133;-79
2023/04/06 09:50:33;;;;;;;1.48;0.60;;;;;;;9.26;100.00;100885.66;4979873;28;20058;-80
2023/04/06 09:53:02;;;;;;;1.95;0.82;;;;;;;9.24;100.00;100882.13;4987415;28;20049;-80
2023/04/06 09:55:36;;;;;;;1.35;0.93;;;;;;;9.22;100.00;100878.63;4988479;28;20433;-80
2023/04/06 09:58:07;;;;;;;3.83;0.88;;;;;;;9.22;100.00;100883.78;4987919;28;20043;-80
2023/04/06 10:00:51;;;;;;;1.10;0.68;;;;;;;9.20;100.00;100870.81;4987069;28;20432;-80
2023/04/06 10:03:28;;;;;;;2.95;1.00;;;;;;;9.20;100.00;100870.81;4984175;28;20109;-80
2023/04/06 10:06:02;;;;;;;2.90;0.88;;;;;;;9.22;100.00;100865.69;4990434;28;20520;-79
2023/04/06 10:08:31;;;;;;;1.15;0.77;;;;;;;9.15;100.00;100856.84;4981163;28;20103;-80
2023/04/06 10:11:00;;;;;;;0.73;0.50;;;;;;;9.21;100.00;100864.84;4990506;28;20073;-80
2023/04/06 10:13:36;;;;;;;1.08;0.60;;;;;;;9.19;100.00;100856.16;4988438;28;20173;-80
2023/04/06 10:16:05;;;;;;;0.80;0.55;;;;;;;9.24;100.00;100861.47;4987713;28;20104;-81
2023/04/06 10:18:34;;;;;;;2.38;0.50;;;;;;;9.25;100.00;100855.47;4984703;28;20484;-80
2023/04/06 10:21:10;;;;;;;0.95;0.63;;;;;;;9.25;100.00;100852.91;4989187;28;20117;-81
2023/04/06 10:23:45;;;;;;;0.63;0.50;;;;;;;9.23;100.00;100842.53;4990198;28;20109;-80
2023/04/06 10:26:16;;;;;;;1.30;0.57;;;;;;;9.28;100.00;100846.97;4979322;28;20046;-80
2023/04/06 10:28:45;;;;;;;1.63;0.65;;;;;;;9.24;100.00;100846.00;4993372;28;20097;-80
2023/04/06 10:31:14;;;;;;;1.17;0.80;;;;;;;9.26;100.00;100846.06;4996207;28;20112;-80
2023/04/06 10:33:43;;;;;;;1.48;0.80;;;;;;;9.25;100.00;100847.72;4989346;28;20050;-81
2023/04/06 10:36:23;;;;;;;1.10;0.80;;;;;;;9.26;100.00;100839.19;4993037;28;20253;-80
2023/04/06 10:38:57;;;;;;;3.25;0.98;;;;;;;9.28;100.00;100837.53;4991407;28;20046;-80
2023/04/06 10:41:33;;;;;;;1.20;0.90;;;;;;;9.30;100.00;100830.72;4981988;28;20081;-80
2023/04/06 10:44:02;;;;;;;3.17;0.90;;;;;;;9.29;100.00;100828.94;4990746;28;20684;-77
2023/04/06 10:46:32;;;;;;;2.97;0.98;;;;;;;9.25;100.00;100821.03;4992493;28;20046;-80
2023/04/06 10:49:11;;;;;;;1.88;0.90;;;;;;;9.27;100.00;100820.28;4986677;28;20046;-80
2023/04/06 10:51:41;;;;;;;1.60;0.88;;;;;;;9.31;100.00;100822.16;4983980;28;20052;-80
2023/04/06 10:54:11;;;;;;;3.40;1.10;;;;;;;9.30;100.00;100820.41;4987234;28;20043;-79
2023/04/06 10:56:40;;;;;;;1.17;0.90;;;;;;;9.29;100.00;100823.78;4986785;28;20053;-81
2023/04/06 10:59:09;;;;;;;1.10;0.65;;;;;;;9.26;100.00;100821.09;4988085;28;20081;-80
2023/04/06 11:01:37;;;;;;;2.30;0.80;;;;;;;9.23;100.00;100808.06;4988428;28;20058;-81
2023/04/06 11:04:08;;;;;;;2.35;0.80;;;;;;;9.24;100.00;100812.44;4990084;28;20571;-80
2023/04/06 11:06:36;;;;;;;4.00;0.80;;;;;;;9.21;100.00;100814.91;4982417;28;20129;-80
2023/04/06 11:09:07;;;;;;;1.77;0.82;;;;;;;9.20;100.00;100805.38;4990359;28;20041;-80
2023/04/06 11:11:40;;;;;;;3.30;1.00;;;;;;;9.16;100.00;100811.25;4986635;28;20050;-80
2023/04/06 11:14:12;;;;;;;2.63;1.13;;;;;;;9.15;100.00;100799.19;4988056;28;20062;-80
2023/04/06 11:16:42;;;;;;;1.42;0.80;;;;;;;9.17;100.00;100797.53;4981216;28;20056;-80
2023/04/06 11:19:12;;;;;;;2.42;0.85;;;;;;;9.16;100.00;100800.94;4987941;28;20050;-79
2023/04/06 11:21:43;;;;;;;2.42;0.88;;;;;;;9.15;100.00;100806.94;4985729;28;20508;-80
2023/04/06 11:24:15;;;;;;;0.98;0.80;;;;;;;9.16;100.00;100803.50;4986710;28;20047;-80
2023/04/06 11:26:45;;;;;;;1.77;0.80;;;;;;;9.11;100.00;100793.03;4983073;28;20042;-80
2023/04/06 11:29:14;;;;;;;2.70;1.55;;;;;;;9.11;100.00;100794.72;4990881;28;20042;-80
2023/04/06 11:31:44;;;;;;;2.70;0.63;;;;;;;9.10;100.00;100793.88;4989460;28;20100;-80
2023/04/06 11:34:19;;;;;;;1.02;0.60;;;;;;;9.06;100.00;100789.41;4986425;28;20046;-80